Time;durP1;ratioP1;P1;durP2;ratioP2;P2;SDS_P1;SDS_P2;PMS_P1;PMS_P2;Temp;Humidity;BMP_temperature;BMP_pressure;BME280_temperature;BME280_humidity;BME280_pressure;Samples;Min_cycle;Max_cycle;Signal;HPM_P1;HPM_P2
2022/11/30 00:02:15;;;;;;;;;;;;;;;;;;5095851;28;19912;-73
2022/11/30 00:04:41;;;;;;;;;;;;;;;;;;5095730;28;19959;-73
2022/11/30 00:07:07;;;;;;;;;;;;;;;;;;5077153;28;19908;-73
2022/11/30 00:09:33;;;;;;;;;;;;;;;;;;5077593;28;19998;-73
2022/11/30 00:11:59;;;;;;;;;;;;;;;;;;5095667;28;19908;-73
2022/11/30 00:14:25;;;;;;;;;;;;;;;;;;5095233;28;19908;-73
2022/11/30 00:16:51;;;;;;;;;;;;;;;;;;5095553;28;20007;-71
2022/11/30 00:19:17;;;;;;;;;;;;;;;;;;5077419;28;19908;-72
2022/11/30 00:21:43;;;;;;;;;;;;;;;;;;5095141;28;19919;-73
2022/11/30 00:24:09;;;;;;;;;;;;;;;;;;5095339;28;20345;-73
2022/11/30 00:26:35;;;;;;;;;;;;;;;;;;5077194;28;19919;-72
2022/11/30 00:29:01;;;;;;;;;;;;;;;;;;5094909;28;19912;-73
2022/11/30 00:31:27;;;;;;;;;;;;;;;;;;5095289;28;19912;-73
2022/11/30 00:33:53;;;;;;;;;;;;;;;;;;5077041;28;19915;-73
2022/11/30 00:36:19;;;;;;;;;;;;;;;;;;5094863;28;19908;-73
2022/11/30 00:38:45;;;;;;;;;;;;;;;;;;5095191;28;19908;-73
2022/11/30 00:41:11;;;;;;;;;;;;;;;;;;5095119;28;20395;-73
2022/11/30 00:43:36;;;;;;;;;;;;;;;;;;5094670;28;20396;-73
2022/11/30 00:46:02;;;;;;;;;;;;;;;;;;5076748;28;19913;-73
2022/11/30 00:48:28;;;;;;;;;;;;;;;;;;5094550;28;19952;-72
2022/11/30 00:50:54;;;;;;;;;;;;;;;;;;5094922;28;19908;-72
2022/11/30 00:53:20;;;;;;;;;;;;;;;;;;5094923;28;19912;-73
2022/11/30 00:55:46;;;;;;;;;;;;;;;;;;5094510;28;19916;-73
2022/11/30 00:58:12;;;;;;;;;;;;;;;;;;5076542;28;20381;-73
2022/11/30 01:00:38;;;;;;;;;;;;;;;;;;5076562;28;19915;-73
2022/11/30 01:03:04;;;;;;;;;;;;;;;;;;5094540;28;20287;-73
2022/11/30 01:05:30;;;;;;;;;;;;;;;;;;5094540;28;20307;-71
2022/11/30 01:07:56;;;;;;;;;;;;;;;;;;5094633;28;19908;-71
2022/11/30 01:10:22;;;;;;;;;;;;;;;;;;5094319;28;19993;-71
2022/11/30 01:12:48;;;;;;;;;;;;;;;;;;5094694;28;19908;-71
2022/11/30 01:15:14;;;;;;;;;;;;;;;;;;5094551;28;20380;-71
2022/11/30 01:17:40;;;;;;;;;;;;;;;;;;5075767;28;19970;-72
2022/11/30 01:20:06;;;;;;;;;;;;;;;;;;5076255;28;19921;-72
2022/11/30 01:22:32;;;;;;;;;;;;;;;;;;5094457;28;19962;-72
2022/11/30 01:24:58;;;;;;;;;;;;;;;;;;5093804;28;19916;-72
2022/11/30 01:27:24;;;;;;;;;;;;;;;;;;5094338;28;19943;-72
2022/11/30 01:29:50;;;;;;;;;;;;;;;;;;5093843;28;19912;-72
2022/11/30 01:32:16;;;;;;;;;;;;;;;;;;5093743;28;19951;-72
2022/11/30 01:34:42;;;;;;;;;;;;;;;;;;5094215;28;19915;-72
2022/11/30 01:37:08;;;;;;;;;;;;;;;;;;5094468;28;19908;-72
2022/11/30 01:39:34;;;;;;;;;;;;;;;;;;5093762;28;20367;-72
2022/11/30 01:42:00;;;;;;;;;;;;;;;;;;5075927;28;19931;-72
2022/11/30 01:44:26;;;;;;;;;;;;;;;;;;5093798;28;19931;-72
2022/11/30 01:46:52;;;;;;;;;;;;;;;;;;5093666;28;19931;-72
2022/11/30 01:49:18;;;;;;;;;;;;;;;;;;5094343;28;20360;-73
2022/11/30 01:51:44;;;;;;;;;;;;;;;;;;5093554;28;19908;-72
2022/11/30 01:54:10;;;;;;;;;;;;;;;;;;5093978;28;20369;-71
2022/11/30 01:56:36;;;;;;;;;;;;;;;;;;5094007;28;19922;-71
2022/11/30 01:59:02;;;;;;;;;;;;;;;;;;5093605;28;19908;-72
2022/11/30 02:01:28;;;;;;;;;;;;;;;;;;5094050;28;19961;-72
2022/11/30 02:03:54;;;;;;;;;;;;;;;;;;5093838;28;19959;-72
2022/11/30 02:06:20;;;;;;;;;;;;;;;;;;5093670;28;19916;-72
2022/11/30 02:08:46;;;;;;;;;;;;;;;;;;5093839;28;19930;-72
2022/11/30 02:11:12;;;;;;;;;;;;;;;;;;5075750;28;19915;-72
2022/11/30 02:13:38;;;;;;;;;;;;;;;;;;5075219;28;19940;-72
2022/11/30 02:16:04;;;;;;;;;;;;;;;;;;5075647;28;20369;-71
2022/11/30 02:18:30;;;;;;;;;;;;;;;;;;5075688;28;19988;-73
2022/11/30 02:20:56;;;;;;;;;;;;;;;;;;5093336;28;19908;-72
2022/11/30 02:23:22;;;;;;;;;;;;;;;;;;5093779;28;19908;-72
2022/11/30 02:25:48;;;;;;;;;;;;;;;;;;5093683;28;19944;-73
2022/11/30 02:28:14;;;;;;;;;;;;;;;;;;5075173;28;20006;-72
2022/11/30 02:30:39;;;;;;;;;;;;;;;;;;5075810;28;19955;-72
2022/11/30 02:33:05;;;;;;;;;;;;;;;;;;5093578;28;19909;-72
2022/11/30 02:35:31;;;;;;;;;;;;;;;;;;5075088;28;20002;-72
2022/11/30 02:37:57;;;;;;;;;;;;;;;;;;5075415;28;20288;-73
2022/11/30 02:40:24;;;;;;;;;;;;;;;;;;5075416;28;19908;-72
2022/11/30 02:42:50;;;;;;;;;;;;;;;;;;5076789;28;19916;-72
2022/11/30 02:45:16;;;;;;;;;;;;;;;;;;5096105;28;19916;-72
2022/11/30 02:47:42;;;;;;;;;;;;;;;;;;5097374;28;19908;-72
2022/11/30 02:50:08;;;;;;;;;;;;;;;;;;5096887;28;19915;-72
2022/11/30 02:52:33;;;;;;;;;;;;;;;;;;5097247;28;19908;-72
2022/11/30 02:55:00;;;;;;;;;;;;;;;;;;5096762;28;20474;-72
2022/11/30 02:57:25;;;;;;;;;;;;;;;;;;5097216;28;19908;-72
2022/11/30 02:59:51;;;;;;;;;;;;;;;;;;5097106;28;20371;-73
2022/11/30 03:02:18;;;;;;;;;;;;;;;;;;5096680;28;20378;-73
2022/11/30 03:04:43;;;;;;;;;;;;;;;;;;5096927;28;19923;-72
2022/11/30 03:07:09;;;;;;;;;;;;;;;;;;5096961;28;20356;-72
2022/11/30 03:09:35;;;;;;;;;;;;;;;;;;5095515;28;20337;-73
2022/11/30 03:12:01;;;;;;;;;;;;;;;;;;5096817;28;19971;-72
2022/11/30 03:14:27;;;;;;;;;;;;;;;;;;5095554;28;19962;-72
2022/11/30 03:16:53;;;;;;;;;;;;;;;;;;5095111;28;19943;-72
2022/11/30 03:19:19;;;;;;;;;;;;;;;;;;5095460;28;19915;-72
2022/11/30 03:21:45;;;;;;;;;;;;;;;;;;5096712;28;19908;-72
2022/11/30 03:24:11;;;;;;;;;;;;;;;;;;5096159;28;19974;-72
2022/11/30 03:26:37;;;;;;;;;;;;;;;;;;5095323;28;19908;-72
2022/11/30 03:29:03;;;;;;;;;;;;;;;;;;5095213;28;19908;-72
2022/11/30 03:31:29;;;;;;;;;;;;;;;;;;5096209;28;19908;-72
2022/11/30 03:33:55;;;;;;;;;;;;;;;;;;5096455;28;19947;-72
2022/11/30 03:36:21;;;;;;;;;;;;;;;;;;5096443;28;19912;-72
2022/11/30 03:38:47;;;;;;;;;;;;;;;;;;5096053;28;19914;-72
2022/11/30 03:41:13;;;;;;;;;;;;;;;;;;5096307;28;19908;-72
2022/11/30 03:43:39;;;;;;;;;;;;;;;;;;5094724;28;19924;-72
2022/11/30 03:46:05;;;;;;;;;;;;;;;;;;5095850;28;19970;-72
2022/11/30 03:48:31;;;;;;;;;;;;;;;;;;5096197;28;19912;-72
2022/11/30 03:50:57;;;;;;;;;;;;;;;;;;5096124;28;19908;-72
2022/11/30 03:53:23;;;;;;;;;;;;;;;;;;5095199;28;19918;-72
2022/11/30 03:55:49;;;;;;;;;;;;;;;;;;5095972;28;19914;-72
2022/11/30 03:58:14;;;;;;;;;;;;;;;;;;5095590;28;20486;-72
2022/11/30 04:00:40;;;;;;;;;;;;;;;;;;5094712;28;20292;-72
2022/11/30 04:03:06;;;;;;;;;;;;;;;;;;5095918;28;20284;-72
2022/11/30 04:05:32;;;;;;;;;;;;;;;;;;5095334;28;19916;-72
2022/11/30 04:07:58;;;;;;;;;;;;;;;;;;5095965;28;19915;-72
2022/11/30 04:10:24;;;;;;;;;;;;;;;;;;5096003;28;19959;-72
2022/11/30 04:12:50;;;;;;;;;;;;;;;;;;5095274;28;20116;-72
2022/11/30 04:15:16;;;;;;;;;;;;;;;;;;5095751;28;19995;-72
2022/11/30 04:17:42;;;;;;;;;;;;;;;;;;5094586;28;19912;-72
2022/11/30 04:20:08;;;;;;;;;;;;;;;;;;5093921;28;20383;-72
2022/11/30 04:22:34;;;;;;;;;;;;;;;;;;5095995;28;20376;-72
2022/11/30 04:25:00;;;;;;;;;;;;;;;;;;5095419;28;20337;-72
2022/11/30 04:27:26;;;;;;;;;;;;;;;;;;5095012;28;19915;-72
2022/11/30 04:29:52;;;;;;;;;;;;;;;;;;5095407;28;19908;-71
2022/11/30 04:32:18;;;;;;;;;;;;;;;;;;5095408;28;19912;-72
2022/11/30 04:34:44;;;;;;;;;;;;;;;;;;5094957;28;19955;-72
2022/11/30 04:37:10;;;;;;;;;;;;;;;;;;5095819;28;19999;-72
2022/11/30 04:39:36;;;;;;;;;;;;;;;;;;5095191;28;20004;-72
2022/11/30 04:42:02;;;;;;;;;;;;;;;;;;5093487;28;20380;-72
2022/11/30 04:44:27;;;;;;;;;;;;;;;;;;5094943;28;20301;-72
2022/11/30 04:46:53;;;;;;;;;;;;;;;;;;5095029;28;20319;-72
2022/11/30 04:49:19;;;;;;;;;;;;;;;;;;5094584;28;19912;-72
2022/11/30 04:51:45;;;;;;;;;;;;;;;;;;5095019;28;19934;-72
2022/11/30 04:54:11;;;;;;;;;;;;;;;;;;5094940;28;19938;-72
2022/11/30 04:56:37;;;;;;;;;;;;;;;;;;5094470;28;19908;-72
2022/11/30 04:59:03;;;;;;;;;;;;;;;;;;5076577;28;19950;-72
2022/11/30 05:01:29;;;;;;;;;;;;;;;;;;5094417;28;19909;-72
2022/11/30 05:03:58;;;;;;;;;;;;;;;;;;5094735;28;19951;-72
2022/11/30 05:06:24;;;;;;;;;;;;;;;;;;5093934;28;19995;-72
2022/11/30 05:08:50;;;;;;;;;;;;;;;;;;5094195;28;20002;-72
2022/11/30 05:11:16;;;;;;;;;;;;;;;;;;5094862;28;19913;-72
2022/11/30 05:13:42;;;;;;;;;;;;;;;;;;5094583;28;20356;-72
2022/11/30 05:16:09;;;;;;;;;;;;;;;;;;5094146;28;20276;-72
2022/11/30 05:18:35;;;;;;;;;;;;;;;;;;5076425;28;19908;-72
2022/11/30 05:21:01;;;;;;;;;;;;;;;;;;5094427;28;19919;-72
2022/11/30 05:23:27;;;;;;;;;;;;;;;;;;5093965;28;19931;-72
2022/11/30 05:25:53;;;;;;;;;;;;;;;;;;5094394;28;20364;-72
2022/11/30 05:28:19;;;;;;;;;;;;;;;;;;5094561;28;19908;-72
2022/11/30 05:30:45;;;;;;;;;;;;;;;;;;5093896;28;19989;-72
2022/11/30 05:33:11;;;;;;;;;;;;;;;;;;5094235;28;19912;-72
2022/11/30 05:35:37;;;;;;;;;;;;;;;;;;5094213;28;19914;-73
2022/11/30 05:38:03;;;;;;;;;;;;;;;;;;5075659;28;20387;-73
2022/11/30 05:40:31;;;;;;;;;;;;;;;;;;5076044;28;20374;-73
2022/11/30 05:42:57;;;;;;;;;;;;;;;;;;5094003;28;19965;-73
2022/11/30 05:45:23;;;;;;;;;;;;;;;;;;5093693;28;20318;-74
2022/11/30 05:47:49;;;;;;;;;;;;;;;;;;5076057;28;20276;-73
2022/11/30 05:50:15;;;;;;;;;;;;;;;;;;5094222;28;19908;-73
2022/11/30 05:52:40;;;;;;;;;;;;;;;;;;5093598;28;19912;-73
2022/11/30 05:55:07;;;;;;;;;;;;;;;;;;5093977;28;19914;-73
2022/11/30 05:57:32;;;;;;;;;;;;;;;;;;5093981;28;20383;-73
2022/11/30 05:59:58;;;;;;;;;;;;;;;;;;5093742;28;19911;-73
2022/11/30 06:02:24;;;;;;;;;;;;;;;;;;5094110;28;19908;-73
2022/11/30 06:04:50;;;;;;;;;;;;;;;;;;5075436;28;19927;-73
2022/11/30 06:07:16;;;;;;;;;;;;;;;;;;5093831;28;20288;-73
2022/11/30 06:09:42;;;;;;;;;;;;;;;;;;5094042;28;19931;-73
2022/11/30 06:12:08;;;;;;;;;;;;;;;;;;5093527;28;19947;-74
2022/11/30 06:14:34;;;;;;;;;;;;;;;;;;5093278;28;19908;-72
2022/11/30 06:17:00;;;;;;;;;;;;;;;;;;5094966;28;19935;-74
2022/11/30 06:19:26;;;;;;;;;;;;;;;;;;5071561;28;19908;-77
2022/11/30 06:21:52;;;;;;;;;;;;;;;;;;5082104;28;19909;-78
2022/11/30 06:24:18;;;;;;;;;;;;;;;;;;5077202;28;19916;-77
2022/11/30 06:26:45;;;;;;;;;;;;;;;;;;5065444;28;20011;-76
2022/11/30 06:29:11;;;;;;;;;;;;;;;;;;5065577;28;19924;-74
2022/11/30 06:31:39;;;;;;;;;;;;;;;;;;5042910;28;19931;-76
2022/11/30 06:34:10;;;;;;;;;;;;;;;;;;5065686;28;19921;-75
2022/11/30 06:36:37;;;;;;;;;;;;;;;;;;5071258;28;19954;-75
2022/11/30 06:39:06;;;;;;;;;;;;;;;;;;5083037;28;19926;-73
2022/11/30 06:41:33;;;;;;;;;;;;;;;;;;5070086;28;19913;-71
2022/11/30 06:44:02;;;;;;;;;;;;;;;;;;5081312;28;19920;-74
2022/11/30 06:46:28;;;;;;;;;;;;;;;;;;5090771;28;19916;-76
2022/11/30 06:48:54;;;;;;;;;;;;;;;;;;5095182;28;20007;-80
2022/11/30 06:51:23;;;;;;;;;;;;;;;;;;5093147;28;19961;-73
2022/11/30 06:53:49;;;;;;;;;;;;;;;;;;5094944;28;19954;-75
2022/11/30 06:56:33;;;;;;;;;;;;;;;;;;5110530;28;19984;-74
2022/11/30 06:58:59;;;;;;;;;;;;;;;;;;5103809;28;19912;-75
2022/11/30 07:01:28;;;;;;;;;;;;;;;;;;5094395;28;19908;-72
2022/11/30 07:03:58;;;;;;;;;;;;;;;;;;5084549;28;19924;-72
2022/11/30 07:06:24;;;;;;;;;;;;;;;;;;5096000;28;19908;-74
2022/11/30 07:08:52;;;;;;;;;;;;;;;;;;5099065;28;19947;-77
2022/11/30 07:11:22;;;;;;;;;;;;;;;;;;5095750;28;20562;-73
2022/11/30 07:13:48;;;;;;;;;;;;;;;;;;5093513;28;19912;-68
2022/11/30 07:16:14;;;;;;;;;;;;;;;;;;5095870;28;19908;-75
2022/11/30 07:18:40;;;;;;;;;;;;;;;;;;5094811;28;20351;-72
2022/11/30 07:21:06;;;;;;;;;;;;;;;;;;5094504;28;19912;-72
2022/11/30 07:26:19;;;;;;;;;;;;;;;;;;5095242;28;19927;-72
2022/11/30 07:28:48;;;;;;;;;;;;;;;;;;5090726;28;20430;-74
2022/11/30 07:31:18;;;;;;;;;;;;;;;;;;5095024;28;19999;-76
2022/11/30 07:33:43;;;;;;;;;;;;;;;;;;5093585;28;19908;-74
2022/11/30 07:36:10;;;;;;;;;;;;;;;;;;5092675;28;20009;-74
2022/11/30 07:38:38;;;;;;;;;;;;;;;;;;5092322;28;19912;-73
2022/11/30 07:41:05;;;;;;;;;;;;;;;;;;5091926;28;19916;-73
2022/11/30 07:43:34;;;;;;;;;;;;;;;;;;5089464;28;19927;-76
2022/11/30 07:46:02;;;;;;;;;;;;;;;;;;5092754;28;19916;-78
2022/11/30 07:48:28;;;;;;;;;;;;;;;;;;5093079;28;19930;-76
2022/11/30 07:50:54;;;;;;;;;;;;;;;;;;5093670;28;19908;-76
2022/11/30 07:53:20;;;;;;;;;;;;;;;;;;5095438;28;19908;-75
2022/11/30 07:55:46;;;;;;;;;;;;;;;;;;5094688;28;19965;-75
2022/11/30 07:58:12;;;;;;;;;;;;;;;;;;5092152;28;19908;-77
2022/11/30 08:00:38;;;;;;;;;;;;;;;;;;5090760;28;19951;-78
2022/11/30 08:03:06;;;;;;;;;;;;;;;;;;5092883;28;19915;-76
2022/11/30 08:05:32;;;;;;;;;;;;;;;;;;5092366;28;20475;-80
2022/11/30 08:07:59;;;;;;;;;;;;;;;;;;5091431;28;20026;-77
2022/11/30 08:10:25;;;;;;;;;;;;;;;;;;5095074;28;19916;-77
2022/11/30 08:12:51;;;;;;;;;;;;;;;;;;5094895;28;19912;-81
2022/11/30 08:15:17;;;;;;;;;;;;;;;;;;5093681;28;19992;-80
2022/11/30 08:17:43;;;;;;;;;;;;;;;;;;5096370;28;19943;-76
2022/11/30 08:20:10;;;;;;;;;;;;;;;;;;5103457;28;19908;-74
2022/11/30 08:22:36;;;;;;;;;;;;;;;;;;5101997;28;19908;-75
2022/11/30 08:25:02;;;;;;;;;;;;;;;;;;5099492;28;19985;-75
2022/11/30 08:27:28;;;;;;;;;;;;;;;;;;5078685;28;19912;-78
2022/11/30 08:29:54;;;;;;;;;;;;;;;;;;5089082;28;19908;-77
2022/11/30 08:32:20;;;;;;;;;;;;;;;;;;5097445;28;19915;-80
2022/11/30 08:34:46;;;;;;;;;;;;;;;;;;5096452;28;20006;-77
2022/11/30 08:37:12;;;;;;;;;;;;;;;;;;5094483;28;19908;-79
2022/11/30 08:39:38;;;;;;;;;;;;;;;;;;5092094;28;19908;-74
2022/11/30 08:42:04;;;;;;;;;;;;;;;;;;5089122;28;19908;-75
2022/11/30 08:44:31;;;;;;;;;;;;;;;;;;5087433;28;19943;-77
2022/11/30 08:46:58;;;;;;;;;;;;;;;;;;5094643;28;19915;-73
2022/11/30 08:49:24;;;;;;;;;;;;;;;;;;5091425;28;19908;-75
2022/11/30 08:51:50;;;;;;;;;;;;;;;;;;5080766;28;19912;-74
2022/11/30 08:54:16;;;;;;;;;;;;;;;;;;5085375;28;19916;-75
2022/11/30 08:56:42;;;;;;;;;;;;;;;;;;5086874;28;19925;-76
2022/11/30 08:59:08;;;;;;;;;;;;;;;;;;5085328;28;19912;-72
2022/11/30 09:01:34;;;;;;;;;;;;;;;;;;5076706;28;19961;-76
2022/11/30 09:04:00;;;;;;;;;;;;;;;;;;5089793;28;19916;-75
2022/11/30 09:06:26;;;;;;;;;;;;;;;;;;5090848;28;19915;-75
2022/11/30 09:08:52;;;;;;;;;;;;;;;;;;5087109;28;19912;-75
2022/11/30 09:11:17;;;;;;;;;;;;;;;;;;5103270;28;20004;-77
2022/11/30 09:13:43;;;;;;;;;;;;;;;;;;5081328;28;20163;-75
2022/11/30 09:16:09;;;;;;;;;;;;;;;;;;5088157;28;19913;-74
2022/11/30 09:18:35;;;;;;;;;;;;;;;;;;5110528;28;19908;-73
2022/11/30 09:21:01;;;;;;;;;;;;;;;;;;5093086;28;19958;-74
2022/11/30 09:23:27;;;;;;;;;;;;;;;;;;5087891;28;19916;-72
2022/11/30 09:25:56;;;;;;;;;;;;;;;;;;5088395;28;20010;-77
2022/11/30 09:28:22;;;;;;;;;;;;;;;;;;5087988;28;20054;-76
2022/11/30 09:30:51;;;;;;;;;;;;;;;;;;5076815;28;19915;-76
2022/11/30 09:33:23;;;;;;;;;;;;;;;;;;5078475;28;19916;-75
2022/11/30 09:35:50;;;;;;;;;;;;;;;;;;5084084;28;19916;-74
2022/11/30 09:38:17;;;;;;;;;;;;;;;;;;5084384;28;19920;-75
2022/11/30 09:40:47;;;;;;;;;;;;;;;;;;5072520;28;19931;-74
2022/11/30 09:43:13;;;;;;;;;;;;;;;;;;5074349;28;20040;-75
2022/11/30 09:45:41;;;;;;;;;;;;;;;;;;5081199;28;19974;-74
2022/11/30 09:48:07;;;;;;;;;;;;;;;;;;5088940;28;20291;-73
2022/11/30 09:50:33;;;;;;;;;;;;;;;;;;5086095;28;19991;-76
2022/11/30 09:52:59;;;;;;;;;;;;;;;;;;5074066;28;19935;-77
2022/11/30 09:55:25;;;;;;;;;;;;;;;;;;5076317;28;20004;-74
2022/11/30 09:57:51;;;;;;;;;;;;;;;;;;5086944;28;19912;-76
2022/11/30 10:00:17;;;;;;;;;;;;;;;;;;5093185;28;19915;-77
2022/11/30 10:02:43;;;;;;;;;;;;;;;;;;5085851;28;20007;-71
2022/11/30 10:05:09;;;;;;;;;;;;;;;;;;5090313;28;20495;-77
2022/11/30 10:07:35;;;;;;;;;;;;;;;;;;5088413;28;20018;-78
2022/11/30 10:10:01;;;;;;;;;;;;;;;;;;5083801;28;19994;-76
2022/11/30 10:12:27;;;;;;;;;;;;;;;;;;5086013;28;19916;-76
2022/11/30 10:14:55;;;;;;;;;;;;;;;;;;5089666;28;19912;-76
2022/11/30 10:17:21;;;;;;;;;;;;;;;;;;5091449;28;19916;-73
2022/11/30 10:19:48;;;;;;;;;;;;;;;;;;5091722;28;20007;-76
2022/11/30 10:22:14;;;;;;;;;;;;;;;;;;5085668;28;19915;-72
2022/11/30 10:24:40;;;;;;;;;;;;;;;;;;5090477;28;19919;-74
2022/11/30 10:27:06;;;;;;;;;;;;;;;;;;5090484;28;19917;-76
2022/11/30 10:29:34;;;;;;;;;;;;;;;;;;5091649;28;19951;-77
2022/11/30 10:32:00;;;;;;;;;;;;;;;;;;5092265;28;20371;-79
2022/11/30 10:34:26;;;;;;;;;;;;;;;;;;5079799;28;19916;-78
2022/11/30 10:37:00;;;;;;;;;;;;;;;;;;5089862;28;19964;-76
2022/11/30 10:39:26;;;;;;;;;;;;;;;;;;5084482;28;19912;-74
2022/11/30 10:41:52;;;;;;;;;;;;;;;;;;5089932;28;19908;-73
2022/11/30 10:44:22;;;;;;;;;;;;;;;;;;5090379;28;19924;-74
2022/11/30 10:46:48;;;;;;;;;;;;;;;;;;5063831;28;19915;-76
2022/11/30 10:49:17;;;;;;;;;;;;;;;;;;5071276;28;20383;-76
2022/11/30 10:51:43;;;;;;;;;;;;;;;;;;5053854;28;20008;-78
2022/11/30 10:54:09;;;;;;;;;;;;;;;;;;5049640;28;19996;-77
2022/11/30 10:56:35;;;;;;;;;;;;;;;;;;5069380;28;19916;-76
2022/11/30 10:59:02;;;;;;;;;;;;;;;;;;5070101;28;19908;-79
2022/11/30 11:01:28;;;;;;;;;;;;;;;;;;5070583;28;19919;-75
2022/11/30 11:03:53;;;;;;;;;;;;;;;;;;5053838;28;19908;-78
2022/11/30 11:06:19;;;;;;;;;;;;;;;;;;5074365;28;19948;-75
2022/11/30 11:08:45;;;;;;;;;;;;;;;;;;5062356;28;20320;-78
2022/11/30 11:11:12;;;;;;;;;;;;;;;;;;5068036;28;19912;-75
2022/11/30 11:13:38;;;;;;;;;;;;;;;;;;5033560;28;19909;-75
2022/11/30 11:16:04;;;;;;;;;;;;;;;;;;5052542;28;19994;-77
2022/11/30 11:18:30;;;;;;;;;;;;;;;;;;5052391;28;19999;-79
2022/11/30 11:20:56;;;;;;;;;;;;;;;;;;5048710;28;19938;-77
2022/11/30 11:23:22;;;;;;;;;;;;;;;;;;5055797;28;19915;-80
2022/11/30 11:25:48;;;;;;;;;;;;;;;;;;5055150;28;19920;-80
2022/11/30 11:28:14;;;;;;;;;;;;;;;;;;5072077;28;19957;-79
2022/11/30 11:30:40;;;;;;;;;;;;;;;;;;5054089;28;19909;-74
2022/11/30 11:33:06;;;;;;;;;;;;;;;;;;5054043;28;19935;-77
2022/11/30 11:35:32;;;;;;;;;;;;;;;;;;5052091;28;20266;-78
2022/11/30 11:37:57;;;;;;;;;;;;;;;;;;5072659;28;19916;-75
2022/11/30 11:40:23;;;;;;;;;;;;;;;;;;5074216;28;19908;-76
2022/11/30 11:42:50;;;;;;;;;;;;;;;;;;5075498;28;20288;-79
2022/11/30 11:45:16;;;;;;;;;;;;;;;;;;5095619;28;19924;-74
2022/11/30 11:47:42;;;;;;;;;;;;;;;;;;5095618;28;20280;-75
2022/11/30 11:50:08;;;;;;;;;;;;;;;;;;5095093;28;19912;-76
2022/11/30 11:52:33;;;;;;;;;;;;;;;;;;5094449;28;19947;-76
2022/11/30 11:54:59;;;;;;;;;;;;;;;;;;5094248;28;19916;-75
2022/11/30 11:57:25;;;;;;;;;;;;;;;;;;5095189;28;19991;-73
2022/11/30 11:59:51;;;;;;;;;;;;;;;;;;5093882;28;19909;-73
2022/11/30 12:02:17;;;;;;;;;;;;;;;;;;5093520;28;19994;-76
2022/11/30 12:04:43;;;;;;;;;;;;;;;;;;5094869;28;19944;-76
2022/11/30 12:07:09;;;;;;;;;;;;;;;;;;5095059;28;19909;-78
2022/11/30 12:09:36;;;;;;;;;;;;;;;;;;5093770;28;20406;-78
2022/11/30 12:12:02;;;;;;;;;;;;;;;;;;5094226;28;20002;-79
2022/11/30 12:14:28;;;;;;;;;;;;;;;;;;5092942;28;20276;-79
2022/11/30 12:16:54;;;;;;;;;;;;;;;;;;5090249;28;19908;-78
2022/11/30 12:19:20;;;;;;;;;;;;;;;;;;5092324;28;19930;-79
2022/11/30 12:21:46;;;;;;;;;;;;;;;;;;5091772;28;19909;-79
2022/11/30 12:24:12;;;;;;;;;;;;;;;;;;5093458;28;20391;-78
2022/11/30 12:26:38;;;;;;;;;;;;;;;;;;5092961;28;20365;-79
2022/11/30 12:29:04;;;;;;;;;;;;;;;;;;5093867;28;19999;-79
2022/11/30 12:31:30;;;;;;;;;;;;;;;;;;5095505;28;19916;-78
2022/11/30 12:33:55;;;;;;;;;;;;;;;;;;5095139;28;20249;-79
2022/11/30 12:36:21;;;;;;;;;;;;;;;;;;5095573;28;19908;-81
2022/11/30 12:38:48;;;;;;;;;;;;;;;;;;5095154;28;19985;-79
2022/11/30 12:41:14;;;;;;;;;;;;;;;;;;5095345;28;20030;-78
2022/11/30 12:43:40;;;;;;;;;;;;;;;;;;5095066;28;19955;-78
2022/11/30 12:46:06;;;;;;;;;;;;;;;;;;5094773;28;19916;-78
2022/11/30 12:48:33;;;;;;;;;;;;;;;;;;5093826;28;19945;-79
2022/11/30 12:50:59;;;;;;;;;;;;;;;;;;5095117;28;19962;-77
2022/11/30 12:53:25;;;;;;;;;;;;;;;;;;5090188;28;19908;-84
2022/11/30 12:55:51;;;;;;;;;;;;;;;;;;5095791;28;19922;-81
2022/11/30 12:58:17;;;;;;;;;;;;;;;;;;5094574;28;19908;-82
2022/11/30 13:00:43;;;;;;;;;;;;;;;;;;5094561;28;19911;-81
2022/11/30 13:03:09;;;;;;;;;;;;;;;;;;5095379;28;19912;-83
2022/11/30 13:05:35;;;;;;;;;;;;;;;;;;5095098;28;19964;-84
2022/11/30 13:08:01;;;;;;;;;;;;;;;;;;5094381;28;20026;-80
2022/11/30 13:10:27;;;;;;;;;;;;;;;;;;5094655;28;19939;-80
2022/11/30 13:12:53;;;;;;;;;;;;;;;;;;5094594;28;20280;-77
2022/11/30 13:15:19;;;;;;;;;;;;;;;;;;5093956;28;19908;-75
2022/11/30 13:17:45;;;;;;;;;;;;;;;;;;5094100;28;19908;-75
2022/11/30 13:20:13;;;;;;;;;;;;;;;;;;5094198;28;19923;-75
2022/11/30 13:22:39;;;;;;;;;;;;;;;;;;5093421;28;20364;-77
2022/11/30 13:25:05;;;;;;;;;;;;;;;;;;5094108;28;19923;-74
2022/11/30 13:27:31;;;;;;;;;;;;;;;;;;5093375;28;19912;-74
2022/11/30 13:29:57;;;;;;;;;;;;;;;;;;5093634;28;19914;-76
2022/11/30 13:32:23;;;;;;;;;;;;;;;;;;5094929;28;19908;-80
2022/11/30 13:34:49;;;;;;;;;;;;;;;;;;5094288;28;19908;-77
2022/11/30 13:37:15;;;;;;;;;;;;;;;;;;5093662;28;19915;-79
2022/11/30 13:39:41;;;;;;;;;;;;;;;;;;5093854;28;20364;-76
2022/11/30 13:42:07;;;;;;;;;;;;;;;;;;5093285;28;20338;-75
2022/11/30 13:44:33;;;;;;;;;;;;;;;;;;5093875;28;20287;-77
2022/11/30 13:47:01;;;;;;;;;;;;;;;;;;5093446;28;21312;-81
2022/11/30 13:49:27;;;;;;;;;;;;;;;;;;5093494;28;19934;-78
2022/11/30 13:51:53;;;;;;;;;;;;;;;;;;5093050;28;20423;-77
2022/11/30 13:54:19;;;;;;;;;;;;;;;;;;5094086;28;20013;-74
2022/11/30 13:56:45;;;;;;;;;;;;;;;;;;5093514;28;19947;-74
2022/11/30 13:59:11;;;;;;;;;;;;;;;;;;5093953;28;19919;-74
2022/11/30 14:01:37;;;;;;;;;;;;;;;;;;5092565;28;20390;-74
2022/11/30 14:04:03;;;;;;;;;;;;;;;;;;5092130;28;20257;-74
2022/11/30 14:06:29;;;;;;;;;;;;;;;;;;5093876;28;20352;-75
2022/11/30 14:08:55;;;;;;;;;;;;;;;;;;5092084;28;19961;-74
2022/11/30 14:11:21;;;;;;;;;;;;;;;;;;5093444;28;19912;-73
2022/11/30 14:13:47;;;;;;;;;;;;;;;;;;5093741;28;19926;-73
2022/11/30 14:16:13;;;;;;;;;;;;;;;;;;5093461;28;20135;-73
2022/11/30 14:18:39;;;;;;;;;;;;;;;;;;5098212;28;20370;-73
2022/11/30 14:21:05;;;;;;;;;;;;;;;;;;5094092;28;20296;-74
2022/11/30 14:23:31;;;;;;;;;;;;;;;;;;5111296;28;19923;-74
2022/11/30 14:25:57;;;;;;;;;;;;;;;;;;5112103;28;20325;-73
2022/11/30 14:28:23;;;;;;;;;;;;;;;;;;5112754;28;19930;-73
2022/11/30 14:30:49;;;;;;;;;;;;;;;;;;5112164;28;20372;-74
2022/11/30 14:33:15;;;;;;;;;;;;;;;;;;5113412;28;20018;-73
2022/11/30 14:35:41;;;;;;;;;;;;;;;;;;5114539;28;19916;-75
2022/11/30 14:38:07;;;;;;;;;;;;;;;;;;5115915;28;19912;-74
2022/11/30 14:40:33;;;;;;;;;;;;;;;;;;5118068;28;19914;-74
2022/11/30 14:42:59;;;;;;;;;;;;;;;;;;5117750;28;19907;-73
2022/11/30 14:45:25;;;;;;;;;;;;;;;;;;5117875;28;19915;-74
2022/11/30 14:47:52;;;;;;;;;;;;;;;;;;5118044;28;19908;-72
2022/11/30 14:50:18;;;;;;;;;;;;;;;;;;5117759;28;19961;-74
2022/11/30 14:52:45;;;;;;;;;;;;;;;;;;5117324;28;20322;-73
2022/11/30 14:55:12;;;;;;;;;;;;;;;;;;5117577;28;19912;-73
2022/11/30 14:57:38;;;;;;;;;;;;;;;;;;5117685;28;19907;-73
2022/11/30 15:00:04;;;;;;;;;;;;;;;;;;5117083;28;19908;-73
2022/11/30 15:02:33;;;;;;;;;;;;;;;;;;5117550;28;19966;-73
2022/11/30 15:04:59;;;;;;;;;;;;;;;;;;5117438;28;19950;-73
2022/11/30 15:07:25;;;;;;;;;;;;;;;;;;5117042;28;19908;-73
2022/11/30 15:09:50;;;;;;;;;;;;;;;;;;5117496;28;20003;-73
2022/11/30 15:12:17;;;;;;;;;;;;;;;;;;5117389;28;19922;-73
2022/11/30 15:14:43;;;;;;;;;;;;;;;;;;5117078;28;19973;-73
2022/11/30 15:17:08;;;;;;;;;;;;;;;;;;5117416;28;20359;-73
2022/11/30 15:19:34;;;;;;;;;;;;;;;;;;5117246;28;20417;-74
2022/11/30 15:22:00;;;;;;;;;;;;;;;;;;5116824;27;20272;-72
2022/11/30 15:24:28;;;;;;;;;;;;;;;;;;5116963;28;19912;-74
2022/11/30 15:26:54;;;;;;;;;;;;;;;;;;5117036;28;19912;-74
2022/11/30 15:29:20;;;;;;;;;;;;;;;;;;5116688;28;19914;-73
2022/11/30 15:31:46;;;;;;;;;;;;;;;;;;5117021;28;19908;-73
2022/11/30 15:34:12;;;;;;;;;;;;;;;;;;5116989;28;19960;-73
2022/11/30 15:36:38;;;;;;;;;;;;;;;;;;5116503;28;19908;-73
2022/11/30 15:39:04;;;;;;;;;;;;;;;;;;5117075;28;19915;-73
2022/11/30 15:41:30;;;;;;;;;;;;;;;;;;5116393;28;20355;-73
2022/11/30 15:43:56;;;;;;;;;;;;;;;;;;5116542;28;19926;-73
2022/11/30 15:46:22;;;;;;;;;;;;;;;;;;5116809;28;19912;-73
2022/11/30 15:48:48;;;;;;;;;;;;;;;;;;5115733;28;20356;-73
2022/11/30 15:51:14;;;;;;;;;;;;;;;;;;5116449;28;19915;-73
2022/11/30 15:53:40;;;;;;;;;;;;;;;;;;5116576;28;19908;-73
2022/11/30 15:56:06;;;;;;;;;;;;;;;;;;5116147;28;20006;-73
2022/11/30 15:58:32;;;;;;;;;;;;;;;;;;5115107;28;19915;-74
2022/11/30 16:00:58;;;;;;;;;;;;;;;;;;5116269;28;19908;-74
2022/11/30 16:03:24;;;;;;;;;;;;;;;;;;5115924;28;19914;-74
2022/11/30 16:05:50;;;;;;;;;;;;;;;;;;5114994;28;19923;-75
2022/11/30 16:08:16;;;;;;;;;;;;;;;;;;5116420;28;19954;-73
2022/11/30 16:10:42;;;;;;;;;;;;;;;;;;5115838;28;19907;-74
2022/11/30 16:13:08;;;;;;;;;;;;;;;;;;5116345;28;19908;-73
2022/11/30 16:15:34;;;;;;;;;;;;;;;;;;5115003;28;19912;-74
2022/11/30 16:18:00;;;;;;;;;;;;;;;;;;5115678;28;19961;-74
2022/11/30 16:20:26;;;;;;;;;;;;;;;;;;5116141;28;19907;-73
2022/11/30 16:22:52;;;;;;;;;;;;;;;;;;5115962;28;19966;-74
2022/11/30 16:25:18;;;;;;;;;;;;;;;;;;5115523;28;20356;-73
2022/11/30 16:27:44;;;;;;;;;;;;;;;;;;5114397;28;20402;-72
2022/11/30 16:30:10;;;;;;;;;;;;;;;;;;5115616;28;19997;-74
2022/11/30 16:32:36;;;;;;;;;;;;;;;;;;5114037;28;19912;-74
2022/11/30 16:35:02;;;;;;;;;;;;;;;;;;5115962;28;19907;-73
2022/11/30 16:37:28;;;;;;;;;;;;;;;;;;5115714;28;20241;-74
2022/11/30 16:39:54;;;;;;;;;;;;;;;;;;5114014;28;19912;-74
2022/11/30 16:42:20;;;;;;;;;;;;;;;;;;5116136;28;19908;-74